Time;durP1;ratioP1;P1;durP2;ratioP2;P2;SDS_P1;SDS_P2;PMS_P1;PMS_P2;Temp;Humidity;BMP_temperature;BMP_pressure;BME280_temperature;BME280_humidity;BME280_pressure;Samples;Min_cycle;Max_cycle;Signal;HPM_P1;HPM_P2
2021/07/15 00:00:17;;;;;;;42.45;12.40;;;;;;;23.79;69.93;100822.04;1653394;84;21431;-61
2021/07/15 00:02:43;;;;;;;47.62;14.58;;;;;;;23.78;70.28;100827.16;1673978;84;21554;-61
2021/07/15 00:05:12;;;;;;;44.20;13.03;;;;;;;23.75;70.70;100820.92;1659008;84;20935;-61
2021/07/15 00:07:39;;;;;;;35.98;12.78;;;;;;;23.70;71.05;100816.37;1695553;82;21433;-61
2021/07/15 00:10:23;;;;;;;45.05;13.13;;;;;;;23.66;71.11;100824.50;1698390;82;20942;-60
2021/07/15 00:12:52;;;;;;;50.10;13.65;;;;;;;23.62;70.91;100824.42;1678116;83;20955;-60
2021/07/15 00:15:23;;;;;;;49.75;13.00;;;;;;;23.59;70.72;100830.17;1696991;82;21438;-60
2021/07/15 00:17:53;;;;;;;52.98;12.88;;;;;;;23.58;70.46;100829.81;1698034;82;20890;-60
2021/07/15 00:20:22;;;;;;;42.78;12.78;;;;;;;23.57;70.13;100830.81;1694323;83;20961;-60
2021/07/15 00:22:49;;;;;;;38.58;12.35;;;;;;;23.56;69.94;100823.61;1695124;82;21511;-60
2021/07/15 00:25:21;;;;;;;35.75;12.37;;;;;;;23.54;69.50;100824.22;1708311;81;20909;-60
2021/07/15 00:27:49;;;;;;;37.63;13.30;;;;;;;23.52;69.25;100823.00;1712927;82;21467;-60
2021/07/15 00:30:15;;;;;;;45.17;12.82;;;;;;;23.53;68.64;100822.48;1711483;81;21359;-60
2021/07/15 00:32:42;;;;;;;33.48;11.12;;;;;;;23.54;68.49;100825.58;1712998;82;21550;-60
2021/07/15 00:35:11;;;;;;;39.80;11.05;;;;;;;23.56;68.36;100826.34;1711000;82;21573;-60
2021/07/15 00:37:38;;;;;;;36.88;11.53;;;;;;;23.56;67.93;100820.35;1713524;81;20972;-60
2021/07/15 00:40:06;;;;;;;38.00;12.05;;;;;;;23.58;67.56;100818.86;1710346;82;20972;-61
2021/07/15 00:42:36;;;;;;;31.80;12.63;;;;;;;23.58;67.58;100814.23;1713239;81;20878;-62
2021/07/15 00:45:06;;;;;;;36.17;13.30;;;;;;;23.57;67.84;100813.02;1672498;84;21439;-61
2021/07/15 00:47:33;;;;;;;44.80;13.22;;;;;;;23.54;68.24;100823.73;1715583;82;20972;-61
2021/07/15 00:50:03;;;;;;;46.58;14.43;;;;;;;23.52;68.82;100815.28;1710696;81;20920;-61
2021/07/15 00:52:29;;;;;;;45.95;14.38;;;;;;;23.48;69.31;100809.72;1715979;81;21161;-61
2021/07/15 00:54:58;;;;;;;43.02;12.45;;;;;;;23.43;69.83;100821.06;1710163;81;20953;-61
2021/07/15 00:57:24;;;;;;;45.80;13.35;;;;;;;23.38;70.52;100811.05;1706048;81;21746;-61
2021/07/15 00:59:51;;;;;;;35.92;12.80;;;;;;;23.31;71.16;100810.72;1708536;81;21357;-61
2021/07/15 01:02:19;;;;;;;49.60;13.25;;;;;;;23.26;71.69;100813.00;1711802;82;21003;-61
2021/07/15 01:04:46;;;;;;;39.88;13.20;;;;;;;23.22;72.05;100813.75;1712234;82;21448;-61
2021/07/15 01:07:13;;;;;;;42.43;13.58;;;;;;;23.15;72.49;100806.59;1709780;81;20917;-61
2021/07/15 01:09:40;;;;;;;39.65;13.70;;;;;;;23.09;73.10;100813.09;1705315;81;21772;-61
2021/07/15 01:12:51;;;;;;;32.65;12.55;;;;;;;23.03;73.71;100811.75;1712421;82;20886;-61
2021/07/15 01:15:21;;;;;;;45.20;12.53;;;;;;;22.96;74.09;100810.56;1711371;82;20921;-62
2021/07/15 01:18:04;;;;;;;44.08;13.32;;;;;;;22.91;74.35;100804.63;1711179;81;20986;-62
2021/07/15 01:21:15;;;;;;;36.50;13.58;;;;;;;22.86;74.88;100803.14;1715633;82;20989;-62
2021/07/15 01:24:22;;;;;;;50.33;12.98;;;;;;;22.81;75.41;100809.52;1708450;82;20968;-62
2021/07/15 01:27:29;;;;;;;33.00;12.33;;;;;;;22.74;76.11;100802.85;1729643;81;20913;-62
2021/07/15 01:30:18;;;;;;;53.42;12.23;;;;;;;22.64;76.55;100803.26;1726442;81;20945;-62
2021/07/15 01:33:18;;;;;;;57.08;13.70;;;;;;;22.56;76.99;100806.16;1722710;81;20905;-62
2021/07/15 01:35:53;;;;;;;41.48;12.80;;;;;;;22.49;77.46;100798.12;1725480;81;21354;-62
2021/07/15 01:38:23;;;;;;;;;;;;;;;22.43;77.64;100799.47;1706121;82;21434;-62
2021/07/15 01:40:57;;;;;;;28.17;11.97;;;;;;;22.40;77.91;100801.59;1730364;81;20219;-62
2021/07/15 01:43:37;;;;;;;33.00;11.18;;;;;;;22.33;77.74;100806.21;1729709;81;21524;-62
2021/07/15 01:46:05;;;;;;;24.50;12.03;;;;;;;22.32;77.15;100796.77;1724834;81;20950;-62
2021/07/15 01:48:31;;;;;;;37.10;12.35;;;;;;;22.33;77.13;100795.28;1725628;81;20885;-61
2021/07/15 01:50:58;;;;;;;40.35;12.28;;;;;;;22.37;76.86;100796.39;1730025;81;22041;-62
2021/07/15 01:53:25;;;;;;;40.90;11.90;;;;;;;22.37;76.71;100796.39;1704085;82;21202;-62
2021/07/15 01:55:52;;;;;;;37.98;12.90;;;;;;;22.36;76.79;100797.39;1725956;81;20976;-62
2021/07/15 01:58:19;;;;;;;35.50;12.18;;;;;;;22.33;77.08;100797.16;1733086;81;20941;-62
2021/07/15 02:00:47;;;;;;;46.98;13.70;;;;;;;22.29;77.71;100799.77;1701229;82;20961;-63
2021/07/15 02:03:14;;;;;;;41.40;12.25;;;;;;;22.22;78.14;100791.24;1703961;82;21406;-63
2021/07/15 02:05:41;;;;;;;32.63;11.08;;;;;;;22.16;78.29;100791.73;1706465;82;21519;-63
2021/07/15 02:08:08;;;;;;;34.40;12.98;;;;;;;22.11;78.57;100788.05;1702667;82;21004;-63
2021/07/15 02:10:34;;;;;;;37.90;12.58;;;;;;;22.06;79.03;100786.69;1689811;83;21067;-64
2021/07/15 02:13:03;;;;;;;41.23;11.80;;;;;;;22.01;79.33;100784.33;1673374;81;21003;-61
2021/07/15 02:15:31;;;;;;;31.97;11.70;;;;;;;21.95;79.29;100789.80;1718722;81;21051;-61
2021/07/15 02:17:59;;;;;;;38.70;11.63;;;;;;;21.91;79.59;100793.78;1724275;81;21095;-63
2021/07/15 02:20:26;;;;;;;53.15;12.93;;;;;;;21.88;79.35;100796.28;1728143;81;21855;-63
2021/07/15 02:22:54;;;;;;;46.08;12.80;;;;;;;21.87;79.25;100794.52;1721176;81;21059;-63
2021/07/15 02:25:20;;;;;;;35.48;11.68;;;;;;;21.89;79.11;100795.77;1722674;81;21087;-63
2021/07/15 02:27:47;;;;;;;51.18;11.48;;;;;;;21.90;79.07;100796.14;1715421;81;21063;-64
2021/07/15 02:30:16;;;;;;;39.33;10.48;;;;;;;21.92;79.24;100787.33;1727721;81;20925;-66
2021/07/15 02:32:51;;;;;;;36.70;10.25;;;;;;;21.93;79.35;100791.79;1713561;81;21064;-64
2021/07/15 02:35:19;;;;;;;38.25;10.15;;;;;;;21.96;79.38;100791.53;1717923;81;21466;-64
2021/07/15 02:37:45;;;;;;;34.50;11.12;;;;;;;21.99;78.94;100798.09;1700320;82;20889;-64
2021/07/15 02:40:15;;;;;;;33.13;10.80;;;;;;;22.06;78.67;100793.00;1718317;81;21857;-64
2021/07/15 02:42:45;;;;;;;47.50;12.07;;;;;;;22.13;78.88;100796.09;1720893;81;20908;-64
2021/07/15 02:45:16;;;;;;;51.98;10.70;;;;;;;22.16;79.14;100802.66;1722350;81;21587;-61
2021/07/15 02:47:44;;;;;;;37.48;10.95;;;;;;;22.21;78.89;100806.37;1720445;81;20928;-60
2021/07/15 02:50:12;;;;;;;38.83;10.32;;;;;;;22.25;78.37;100804.64;1719205;81;21328;-60
2021/07/15 02:52:39;;;;;;;43.55;10.68;;;;;;;22.30;78.33;100802.38;1718066;81;20881;-63
2021/07/15 02:55:08;;;;;;;33.67;9.85;;;;;;;22.37;77.76;100805.95;1720215;81;20909;-63
2021/07/15 02:57:57;;;;;;;45.92;10.65;;;;;;;22.42;77.91;100807.78;1721015;81;20917;-59
2021/07/15 03:00:26;;;;;;;40.23;10.13;;;;;;;22.46;78.11;100815.63;1722978;81;20968;-59
2021/07/15 03:03:43;;;;;;;50.52;10.45;;;;;;;22.51;78.12;100812.52;1703271;81;21069;-59
2021/07/15 03:06:14;;;;;;;45.78;9.70;;;;;;;22.57;77.79;100806.52;1715362;81;21114;-59
2021/07/15 03:08:50;;;;;;;52.55;10.88;;;;;;;22.65;77.50;100799.52;1720645;81;21090;-62
2021/07/15 03:11:18;;;;;;;48.33;10.98;;;;;;;22.70;77.33;100798.66;1686825;83;21463;-62
2021/07/15 03:13:46;;;;;;;38.00;10.93;;;;;;;22.75;77.25;100803.22;1696738;83;21219;-62
2021/07/15 03:16:14;;;;;;;42.23;10.50;;;;;;;22.79;77.41;100808.78;1686109;83;21443;-59
2021/07/15 03:18:44;;;;;;;38.50;9.95;;;;;;;22.81;77.32;100802.67;1668518;83;21356;-58
2021/07/15 03:21:11;;;;;;;30.70;9.70;;;;;;;22.86;77.28;100800.41;1679894;83;21087;-58
2021/07/15 03:23:38;;;;;;;52.20;11.18;;;;;;;22.93;76.89;100801.27;1699727;82;21086;-59
2021/07/15 03:26:04;;;;;;;48.68;9.53;;;;;;;23.02;76.82;100801.33;1696926;82;21088;-63
2021/07/15 03:28:33;;;;;;;40.20;10.53;;;;;;;23.10;76.58;100800.66;1657386;84;21418;-59
2021/07/15 03:31:08;;;;;;;62.65;10.13;;;;;;;23.16;75.79;100798.75;1691315;81;21796;-59
2021/07/15 03:33:37;;;;;;;35.52;10.75;;;;;;;23.25;75.21;100801.66;1717372;81;21095;-59
2021/07/15 03:36:07;;;;;;;38.55;10.20;;;;;;;23.34;74.87;100795.42;1680437;83;21134;-59
2021/07/15 03:38:34;;;;;;;38.98;10.95;;;;;;;23.45;74.38;100794.47;1700285;82;20980;-59
2021/07/15 03:41:02;;;;;;;47.33;11.53;;;;;;;23.56;74.15;100790.77;1703432;82;20935;-63
2021/07/15 03:43:29;;;;;;;32.48;9.78;;;;;;;23.65;73.55;100789.93;1700060;82;21463;-63
2021/07/15 03:46:01;;;;;;;40.67;8.88;;;;;;;23.75;72.92;100792.19;1685854;83;20971;-62
2021/07/15 03:48:27;;;;;;;47.48;9.53;;;;;;;23.88;69.73;100796.55;1724913;81;20917;-62
2021/07/15 03:51:03;;;;;;;41.40;9.93;;;;;;;24.03;68.75;100784.73;1720641;81;21491;-62
2021/07/15 03:53:30;;;;;;;;;;;;;;;24.19;69.29;100792.39;1720082;81;21545;-62
2021/07/15 03:55:58;;;;;;;39.03;10.68;;;;;;;24.32;68.90;100798.99;1718937;81;20101;-62
2021/07/15 03:58:25;;;;;;;47.80;10.25;;;;;;;24.44;67.59;100800.56;1720911;81;21427;-62
2021/07/15 04:01:00;;;;;;;39.90;9.23;;;;;;;24.55;66.92;100802.30;1713802;81;20917;-59
2021/07/15 04:03:26;;;;;;;38.78;8.58;;;;;;;24.66;66.40;100797.18;1722136;81;21451;-59
2021/07/15 04:05:53;;;;;;;33.50;8.83;;;;;;;24.77;64.83;100800.30;1723227;81;21391;-59
2021/07/15 04:08:20;;;;;;;59.85;11.33;;;;;;;24.88;63.77;100802.02;1701430;82;21107;-59
2021/07/15 04:10:48;;;;;;;51.28;12.13;;;;;;;25.00;63.25;100802.73;1708150;82;21029;-59
2021/07/15 04:13:17;;;;;;;46.15;12.82;;;;;;;25.11;62.79;100801.20;1700956;82;20930;-59
2021/07/15 04:16:11;;;;;;;64.70;12.70;;;;;;;25.23;63.13;100805.12;1701710;82;20894;-60
2021/07/15 04:18:39;;;;;;;61.08;14.03;;;;;;;25.31;63.19;100799.75;1686339;83;20882;-59
2021/07/15 04:21:06;;;;;;;61.10;12.88;;;;;;;25.43;63.40;100801.83;1702509;82;21471;-59
2021/07/15 04:23:35;;;;;;;55.45;11.03;;;;;;;25.54;62.86;100800.28;1715638;81;20975;-59
2021/07/15 04:26:01;;;;;;;40.67;11.90;;;;;;;25.68;62.33;100792.05;1698718;81;20953;-61
2021/07/15 04:28:28;;;;;;;50.80;11.73;;;;;;;25.81;62.77;100790.84;1687009;82;20959;-61
2021/07/15 04:31:19;;;;;;;59.85;13.05;;;;;;;25.86;62.24;100796.25;1698656;82;20925;-59
2021/07/15 04:33:46;;;;;;;33.08;8.38;;;;;;;25.94;61.76;100791.33;1688226;83;22144;-59
2021/07/15 04:36:13;;;;;;;47.95;9.60;;;;;;;26.05;60.50;100794.90;1699116;82;20922;-59
2021/07/15 04:38:43;;;;;;;53.33;10.05;;;;;;;26.12;57.74;100785.01;1660154;84;21338;-60
2021/07/15 04:41:10;;;;;;;66.20;11.22;;;;;;;26.26;59.05;100791.38;1676754;82;21490;-59
2021/07/15 04:43:38;;;;;;;50.03;11.28;;;;;;;26.41;60.26;100796.31;1702269;82;21335;-61
2021/07/15 04:46:06;;;;;;;51.73;11.12;;;;;;;26.53;60.65;100801.94;1704521;82;21797;-59
2021/07/15 04:48:34;;;;;;;57.70;11.22;;;;;;;26.66;59.82;100800.70;1682414;83;20880;-60
2021/07/15 04:51:02;;;;;;;53.05;11.38;;;;;;;26.80;59.71;100807.52;1704338;82;20963;-60
2021/07/15 04:53:29;;;;;;;31.42;7.78;;;;;;;26.95;59.74;100807.83;1703233;82;20913;-60
2021/07/15 04:55:55;;;;;;;57.33;10.48;;;;;;;27.08;57.31;100801.41;1660197;82;21821;-60
2021/07/15 04:58:23;;;;;;;46.55;9.35;;;;;;;27.21;57.35;100808.34;1708062;82;21912;-60
2021/07/15 05:00:50;;;;;;;49.60;9.10;;;;;;;27.35;56.51;100808.26;1707779;83;21513;-60
2021/07/15 05:03:34;;;;;;;61.83;8.45;;;;;;;27.45;55.94;100811.24;1706937;82;20870;-61
2021/07/15 05:06:02;;;;;;;75.53;8.93;;;;;;;27.59;55.63;100813.92;1701134;82;20931;-61
2021/07/15 05:08:31;;;;;;;82.60;9.68;;;;;;;27.73;55.26;100823.45;1707805;82;21216;-62
2021/07/15 05:10:58;;;;;;;88.40;8.88;;;;;;;27.87;55.23;100819.73;1711547;82;21610;-61
2021/07/15 05:13:26;;;;;;;85.95;9.13;;;;;;;28.02;54.15;100816.70;1700148;82;20889;-62
2021/07/15 05:15:53;;;;;;;76.45;7.87;;;;;;;28.14;53.59;100820.51;1705872;82;20921;-60
2021/07/15 05:18:20;;;;;;;99.25;9.85;;;;;;;28.23;52.91;100825.06;1703904;82;21854;-60
2021/07/15 05:20:46;;;;;;;34.13;8.03;;;;;;;28.33;52.72;100822.16;1706949;83;20875;-60
2021/07/15 05:23:13;;;;;;;43.33;7.35;;;;;;;28.43;52.19;100827.52;1706369;82;21125;-60
2021/07/15 05:25:41;;;;;;;28.77;6.28;;;;;;;28.48;51.05;100825.60;1704610;82;20934;-60
2021/07/15 05:28:10;;;;;;;23.70;6.78;;;;;;;28.55;50.83;100824.76;1705405;82;20905;-60
2021/07/15 05:30:39;;;;;;;26.82;6.10;;;;;;;28.68;51.11;100827.54;1707578;83;21402;-60
2021/07/15 05:33:07;;;;;;;18.30;6.05;;;;;;;28.82;49.77;100824.11;1707988;82;20922;-60
2021/07/15 05:35:34;;;;;;;14.78;5.05;;;;;;;28.94;48.41;100828.77;1688473;83;21431;-60
2021/07/15 05:38:04;;;;;;;13.48;4.80;;;;;;;29.09;47.25;100828.95;1704703;82;21324;-62
2021/07/15 05:40:31;;;;;;;18.42;4.90;;;;;;;29.18;47.26;100831.69;1687413;83;20937;-63
2021/07/15 05:42:57;;;;;;;16.80;3.98;;;;;;;29.31;46.67;100823.73;1699405;82;21419;-62
2021/07/15 05:45:24;;;;;;;11.48;4.67;;;;;;;29.47;46.11;100833.02;1701845;83;21541;-62
2021/07/15 05:47:51;;;;;;;22.62;4.37;;;;;;;29.59;45.32;100837.15;1680776;82;21108;-60
2021/07/15 05:50:17;;;;;;;16.80;4.60;;;;;;;29.70;44.69;100833.14;1708840;82;20953;-59
2021/07/15 05:52:44;;;;;;;18.65;4.67;;;;;;;29.78;44.25;100833.09;1688302;83;21836;-60
2021/07/15 05:55:11;;;;;;;18.23;4.47;;;;;;;29.88;43.60;100835.65;1684754;83;21475;-60
2021/07/15 05:57:40;;;;;;;14.10;4.10;;;;;;;29.97;43.75;100830.95;1684963;83;20929;-60
2021/07/15 06:00:09;;;;;;;14.43;3.87;;;;;;;30.10;43.17;100835.92;1701048;82;20934;-60
2021/07/15 06:02:35;;;;;;;17.10;3.40;;;;;;;30.23;42.30;100832.06;1637775;84;21480;-60
2021/07/15 06:05:03;;;;;;;10.38;3.15;;;;;;;30.27;41.93;100827.01;1704643;82;20967;-59
2021/07/15 06:07:30;;;;;;;13.22;3.35;;;;;;;30.29;40.76;100831.33;1655851;84;21045;-59
2021/07/15 06:09:58;;;;;;;11.10;3.90;;;;;;;30.39;40.50;100841.27;1700309;82;20959;-59
2021/07/15 06:12:24;;;;;;;21.48;3.80;;;;;;;30.51;40.45;100836.22;1700742;82;21315;-60
2021/07/15 06:14:54;;;;;;;14.13;3.92;;;;;;;30.62;40.55;100839.08;1704030;82;20973;-62
2021/07/15 06:17:22;;;;;;;14.35;4.03;;;;;;;30.71;40.66;100829.69;1693909;82;21415;-62
2021/07/15 06:19:51;;;;;;;16.55;3.95;;;;;;;30.82;40.68;100832.00;1720637;81;20884;-60
2021/07/15 06:22:20;;;;;;;17.73;4.53;;;;;;;30.94;39.62;100832.95;1715561;81;21454;-61
2021/07/15 06:24:47;;;;;;;24.07;4.25;;;;;;;31.06;38.44;100836.13;1720512;81;20976;-61
2021/07/15 06:27:15;;;;;;;25.08;4.28;;;;;;;31.19;37.80;100827.17;1717323;81;20926;-61
2021/07/15 06:29:42;;;;;;;23.73;4.53;;;;;;;31.32;37.74;100823.28;1718046;81;20898;-62
2021/07/15 06:32:09;;;;;;;30.35;4.90;;;;;;;31.42;37.98;100822.45;1715264;81;20957;-61
2021/07/15 06:34:38;;;;;;;27.48;4.67;;;;;;;31.51;38.07;100823.77;1713966;81;21391;-62
2021/07/15 06:37:07;;;;;;;21.48;4.00;;;;;;;31.54;37.91;100824.77;1716687;81;21763;-63
2021/07/15 06:39:35;;;;;;;19.10;3.85;;;;;;;31.55;38.09;100815.41;1720084;81;21291;-62
2021/07/15 06:42:02;;;;;;;16.73;4.42;;;;;;;31.60;37.75;100825.38;1715204;81;20995;-63
2021/07/15 06:44:29;;;;;;;14.20;4.08;;;;;;;31.64;38.76;100821.16;1717493;81;20937;-63
2021/07/15 06:46:59;;;;;;;11.10;4.03;;;;;;;31.69;38.18;100826.98;1717809;82;21513;-63
2021/07/15 06:49:30;;;;;;;13.72;3.55;;;;;;;31.63;38.01;100815.30;1718240;81;21106;-63
2021/07/15 06:51:57;;;;;;;13.15;3.42;;;;;;;31.59;37.18;100823.66;1677429;83;20918;-63
2021/07/15 06:54:24;;;;;;;19.15;3.80;;;;;;;31.57;37.39;100821.06;1713624;81;21254;-62
2021/07/15 06:56:53;;;;;;;22.17;3.47;;;;;;;31.58;38.32;100820.55;1713866;81;21479;-62
2021/07/15 06:59:20;;;;;;;9.90;3.55;;;;;;;31.63;37.41;100819.45;1716514;81;20964;-62
2021/07/15 07:01:47;;;;;;;9.90;3.15;;;;;;;31.68;37.37;100822.50;1716647;81;21093;-64
2021/07/15 07:04:13;;;;;;;12.13;3.60;;;;;;;31.65;36.54;100817.34;1717526;81;21431;-62
2021/07/15 07:06:40;;;;;;;10.35;3.20;;;;;;;31.62;36.97;100810.80;1717030;81;20956;-63
2021/07/15 07:09:08;;;;;;;12.93;3.10;;;;;;;31.70;37.93;100823.16;1718754;81;20909;-63
2021/07/15 07:11:34;;;;;;;7.47;3.90;;;;;;;31.73;36.03;100822.80;1715075;81;21006;-61
2021/07/15 07:14:01;;;;;;;8.68;2.65;;;;;;;31.61;36.98;100817.91;1716365;81;21853;-63
2021/07/15 07:16:29;;;;;;;5.80;2.90;;;;;;;31.48;37.13;100821.35;1712942;82;20900;-63
2021/07/15 07:18:55;;;;;;;10.82;3.05;;;;;;;31.39;37.30;100813.14;1711569;81;20893;-63
2021/07/15 07:21:22;;;;;;;12.35;3.37;;;;;;;31.25;37.88;100817.63;1716437;81;21225;-62
2021/07/15 07:23:48;;;;;;;10.38;3.05;;;;;;;31.18;38.44;100815.77;1719535;81;21005;-63
2021/07/15 07:26:15;;;;;;;15.68;2.80;;;;;;;31.22;39.12;100809.70;1713743;81;21654;-65
2021/07/15 07:28:41;;;;;;;12.40;3.45;;;;;;;31.35;39.13;100814.58;1707957;82;21011;-66
2021/07/15 07:31:08;;;;;;;10.32;3.10;;;;;;;31.48;38.28;100813.92;1704742;82;22489;-63
2021/07/15 07:33:35;;;;;;;11.12;3.20;;;;;;;31.56;37.82;100819.89;1708983;81;21483;-60
2021/07/15 07:38:46;;;;;;;9.83;3.10;;;;;;;31.55;37.96;100815.41;1709004;82;21560;-60
2021/07/15 07:41:12;;;;;;;10.08;3.22;;;;;;;31.54;38.25;100820.61;1711236;81;20925;-61
2021/07/15 07:43:40;;;;;;;6.90;3.08;;;;;;;31.55;38.67;100823.71;1711098;82;20945;-62
2021/07/15 07:46:08;;;;;;;23.25;3.75;;;;;;;31.56;38.27;100818.51;1712415;82;21261;-63
2021/07/15 07:48:37;;;;;;;19.75;3.55;;;;;;;31.55;38.42;100820.41;1710781;82;21363;-63
2021/07/15 07:51:03;;;;;;;18.17;3.70;;;;;;;31.48;38.66;100815.81;1712206;82;20982;-63
2021/07/15 07:53:30;;;;;;;14.80;3.98;;;;;;;31.40;39.79;100814.02;1710575;82;21376;-63
2021/07/15 07:55:57;;;;;;;14.78;3.30;;;;;;;31.40;40.20;100819.02;1709825;82;21383;-63
2021/07/15 07:58:25;;;;;;;10.43;3.50;;;;;;;31.42;39.92;100819.69;1712680;81;20907;-63
2021/07/15 08:00:52;;;;;;;10.03;3.85;;;;;;;31.34;39.89;100823.06;1645053;85;20916;-63
2021/07/15 08:03:18;;;;;;;11.43;3.90;;;;;;;31.16;40.63;100813.17;1709867;81;21060;-63
2021/07/15 08:05:48;;;;;;;16.75;4.25;;;;;;;30.93;41.35;100814.09;1712435;81;20941;-63
2021/07/15 08:08:19;;;;;;;8.78;3.77;;;;;;;30.73;42.47;100808.22;1707398;82;20905;-62
2021/07/15 08:10:46;;;;;;;17.50;4.15;;;;;;;30.68;43.23;100807.92;1711619;82;21404;-63
2021/07/15 08:13:13;;;;;;;8.00;3.62;;;;;;;30.74;43.41;100814.09;1714026;81;20928;-63
2021/07/15 08:15:39;;;;;;;11.00;3.98;;;;;;;30.77;43.01;100808.18;1711708;82;21105;-63
2021/07/15 08:18:10;;;;;;;11.03;3.40;;;;;;;30.74;43.26;100811.33;1712339;82;21379;-63
2021/07/15 08:20:36;;;;;;;10.68;3.52;;;;;;;30.59;43.23;100812.09;1713459;82;20879;-63
2021/07/15 08:23:04;;;;;;;16.95;3.52;;;;;;;30.50;43.60;100809.06;1710318;82;20965;-61
2021/07/15 08:25:32;;;;;;;15.45;3.87;;;;;;;30.45;44.38;100810.14;1681485;82;21486;-64
2021/07/15 08:28:08;;;;;;;8.90;3.50;;;;;;;30.42;44.39;100809.13;1671785;83;21442;-65
2021/07/15 08:30:39;;;;;;;14.03;4.22;;;;;;;30.39;44.64;100806.70;1679699;83;20883;-57
2021/07/15 08:33:06;;;;;;;15.28;4.20;;;;;;;30.42;44.70;100806.37;1677525;83;21386;-59
2021/07/15 08:35:32;;;;;;;9.13;3.62;;;;;;;30.44;44.85;100806.50;1715141;81;21025;-60
2021/07/15 08:37:59;;;;;;;8.50;3.77;;;;;;;30.44;45.05;100808.42;1679221;83;21413;-59
2021/07/15 08:40:28;;;;;;;26.55;4.25;;;;;;;30.40;44.98;100812.61;1721652;81;21243;-62
2021/07/15 08:42:55;;;;;;;12.68;4.60;;;;;;;30.32;44.80;100801.08;1718682;81;20913;-62
2021/07/15 08:45:22;;;;;;;14.55;3.92;;;;;;;30.28;45.13;100800.56;1722217;81;20914;-61
2021/07/15 08:47:50;;;;;;;18.55;3.85;;;;;;;30.32;45.38;100809.37;1716988;81;20961;-61
2021/07/15 08:50:17;;;;;;;17.30;3.90;;;;;;;30.35;45.34;100801.21;1716143;81;21922;-60
2021/07/15 08:52:47;;;;;;;8.18;2.95;;;;;;;30.33;45.52;100797.77;1711687;81;21058;-63
2021/07/15 08:57:41;;;;;;;12.45;3.52;;;;;;;30.33;43.91;100796.39;1678347;83;20910;-61
2021/07/15 09:00:16;;;;;;;7.58;3.35;;;;;;;30.32;44.34;100802.97;1717872;81;21003;-61
2021/07/15 09:02:45;;;;;;;23.45;3.55;;;;;;;30.32;43.51;100802.45;1720324;81;20892;-62
2021/07/15 09:05:13;;;;;;;21.82;3.75;;;;;;;30.35;43.59;100802.59;1717579;81;21609;-63
2021/07/15 09:07:44;;;;;;;12.00;3.98;;;;;;;30.42;44.31;100793.92;1715844;81;20924;-67
2021/07/15 09:10:11;;;;;;;11.85;3.00;;;;;;;30.53;43.04;100796.78;1713504;81;20937;-63
2021/07/15 09:12:41;;;;;;;9.43;3.20;;;;;;;30.65;42.95;100797.23;1719738;81;20925;-63
2021/07/15 09:15:11;;;;;;;11.35;3.40;;;;;;;30.62;42.49;100797.58;1719475;81;20945;-63
2021/07/15 09:17:40;;;;;;;16.62;3.90;;;;;;;30.52;42.41;100794.52;1718358;81;21059;-63
2021/07/15 09:20:24;;;;;;;12.90;4.10;;;;;;;30.53;42.85;100783.80;1717172;81;20895;-63
2021/07/15 09:23:04;;;;;;;10.82;3.67;;;;;;;30.63;41.24;100792.41;1711809;81;21478;-63
2021/07/15 09:25:46;;;;;;;20.43;3.67;;;;;;;30.68;40.57;100786.64;1694327;81;20933;-62
2021/07/15 09:28:19;;;;;;;12.75;3.40;;;;;;;30.73;40.41;100794.39;1696192;81;21537;-62
2021/07/15 09:30:48;;;;;;;13.65;3.55;;;;;;;30.76;40.63;100795.39;1700747;81;20924;-62
2021/07/15 09:33:16;;;;;;;15.35;3.50;;;;;;;30.72;40.46;100787.14;1730807;81;20897;-62
2021/07/15 09:35:47;;;;;;;12.15;3.10;;;;;;;30.72;40.99;100792.13;1729749;81;20873;-63
2021/07/15 09:38:27;;;;;;;11.90;3.20;;;;;;;30.74;41.04;100789.19;1732732;81;21525;-63
2021/07/15 09:41:00;;;;;;;17.77;3.35;;;;;;;30.80;40.89;100800.04;1739097;81;20968;-63
2021/07/15 09:43:37;;;;;;;18.37;3.22;;;;;;;30.82;40.13;100796.02;1731940;81;21821;-63
2021/07/15 09:46:18;;;;;;;10.95;3.52;;;;;;;30.84;39.78;100788.42;1727277;81;20912;-63
2021/07/15 09:49:08;;;;;;;8.45;3.05;;;;;;;30.85;40.09;100792.91;1734855;81;20913;-64
2021/07/15 09:51:41;;;;;;;15.35;3.55;;;;;;;30.86;39.13;100791.86;1723417;81;20963;-64
2021/07/15 09:54:11;;;;;;;11.80;3.22;;;;;;;30.84;39.82;100791.19;1731661;81;21034;-63
2021/07/15 09:56:42;;;;;;;19.87;3.83;;;;;;;30.86;39.45;100786.33;1727275;81;20977;-63
2021/07/15 09:59:08;;;;;;;18.45;3.50;;;;;;;30.92;39.44;100792.16;1730053;81;20925;-63
2021/07/15 10:01:38;;;;;;;10.65;3.00;;;;;;;30.94;38.44;100795.59;1726018;81;21318;-64
2021/07/15 10:04:06;;;;;;;10.90;3.20;;;;;;;30.92;38.21;100792.16;1699127;81;21342;-64
2021/07/15 10:06:45;;;;;;;10.68;2.87;;;;;;;30.92;38.14;100792.99;1727102;81;21078;-64
2021/07/15 10:09:31;;;;;;;12.37;2.80;;;;;;;30.95;36.76;100791.77;1730746;81;21051;-64
2021/07/15 10:11:58;;;;;;;14.07;2.70;;;;;;;30.96;36.79;100788.83;1735689;81;21024;-63
2021/07/15 10:14:42;;;;;;;18.35;2.80;;;;;;;30.99;37.06;100791.72;1732549;81;21180;-64
2021/07/15 10:17:11;;;;;;;13.05;3.15;;;;;;;31.03;37.09;100790.83;1688245;82;21591;-64
2021/07/15 10:19:39;;;;;;;14.00;3.35;;;;;;;31.02;37.37;100794.11;1732307;81;21583;-64
2021/07/15 10:22:07;;;;;;;15.35;3.02;;;;;;;30.98;37.20;100792.27;1728852;81;21472;-63
2021/07/15 10:24:35;;;;;;;11.88;3.30;;;;;;;30.97;37.35;100796.59;1728640;81;21575;-63
2021/07/15 10:27:11;;;;;;;15.58;3.20;;;;;;;30.97;37.58;100791.93;1689079;82;20902;-64
2021/07/15 10:29:40;;;;;;;8.80;3.02;;;;;;;30.99;37.78;100788.95;1675231;84;20919;-64
2021/07/15 10:32:07;;;;;;;8.85;2.95;;;;;;;31.02;36.73;100795.49;1646395;85;21413;-63
2021/07/15 10:34:37;;;;;;;12.73;3.47;;;;;;;30.97;36.56;100786.91;1667923;82;21094;-64
2021/07/15 10:37:08;;;;;;;13.38;3.30;;;;;;;30.95;36.63;100782.08;1680575;82;21418;-64
2021/07/15 10:39:37;;;;;;;10.58;3.20;;;;;;;30.93;37.40;100785.56;1706617;82;20969;-64
2021/07/15 10:42:08;;;;;;;12.98;3.08;;;;;;;30.92;37.16;100782.47;1706112;82;20925;-64
2021/07/15 10:44:37;;;;;;;5.72;2.70;;;;;;;30.91;37.28;100784.89;1708241;82;20885;-65
2021/07/15 10:47:05;;;;;;;10.63;2.55;;;;;;;30.88;37.63;100777.81;1712894;82;21349;-64
2021/07/15 10:49:34;;;;;;;9.90;2.85;;;;;;;30.85;37.92;100783.22;1669494;83;21034;-64
2021/07/15 10:52:04;;;;;;;8.05;3.05;;;;;;;30.86;37.90;100778.02;1704656;82;21012;-67
2021/07/15 10:54:34;;;;;;;11.97;2.67;;;;;;;30.87;38.38;100772.82;1658664;81;21092;-64
2021/07/15 10:57:03;;;;;;;7.03;2.65;;;;;;;30.90;38.04;100776.26;1703594;82;21119;-58
2021/07/15 10:59:32;;;;;;;13.28;2.58;;;;;;;30.89;38.59;100773.16;1702300;81;21119;-59
2021/07/15 11:02:02;;;;;;;10.80;3.15;;;;;;;30.86;39.18;100769.72;1706753;82;21417;-62
2021/07/15 11:04:37;;;;;;;11.93;2.60;;;;;;;30.91;39.44;100773.83;1706000;82;20999;-64
2021/07/15 11:07:24;;;;;;;10.53;2.65;;;;;;;30.96;38.68;100774.98;1702952;82;21071;-60
2021/07/15 11:09:55;;;;;;;9.93;2.70;;;;;;;31.00;38.33;100772.69;1702745;81;21016;-61
2021/07/15 11:12:37;;;;;;;11.85;2.60;;;;;;;31.03;39.26;100765.92;1709984;82;21093;-60
2021/07/15 11:15:13;;;;;;;8.68;2.72;;;;;;;31.05;38.28;100770.73;1707919;82;20905;-61
2021/07/15 11:17:50;;;;;;;10.53;2.40;;;;;;;31.05;38.11;100779.89;1702271;82;20983;-61
2021/07/15 11:20:27;;;;;;;12.47;2.60;;;;;;;31.01;36.52;100771.63;1715812;82;21338;-63
2021/07/15 11:23:19;;;;;;;11.40;2.70;;;;;;;30.95;36.42;100776.55;1703570;81;20960;-63
2021/07/15 11:25:45;;;;;;;9.03;2.83;;;;;;;30.92;37.23;100765.86;1688704;81;21454;-63
2021/07/15 11:28:18;;;;;;;4.78;2.22;;;;;;;30.93;37.87;100767.03;1713590;81;20964;-64
2021/07/15 11:30:53;;;;;;;11.08;2.27;;;;;;;30.92;37.73;100764.47;1714699;81;21517;-63
2021/07/15 11:33:30;;;;;;;10.60;2.40;;;;;;;30.92;36.73;100766.70;1709938;81;21015;-63